createdAt,value
2023-04-02T00:04:39.094Z,22.05
2023-04-02T00:09:36.368Z,21.95
2023-04-02T00:14:50.595Z,21.94
2023-04-02T00:20:00.397Z,21.99
2023-04-02T00:24:55.960Z,21.95
2023-04-02T00:30:13.160Z,22.07
2023-04-02T00:35:13.913Z,22.06
2023-04-02T00:40:17.807Z,21.82
2023-04-02T00:45:33.868Z,22.05
2023-04-02T00:50:41.765Z,21.90
2023-04-02T00:55:41.653Z,22.05
2023-04-02T01:00:37.717Z,22.08
2023-04-02T01:05:35.737Z,21.95
2023-04-02T01:10:31.877Z,22.07
2023-04-02T01:15:49.465Z,21.94
2023-04-02T01:21:08.179Z,22.05
2023-04-02T01:26:13.775Z,22.06
2023-04-02T01:31:07.969Z,21.83
2023-04-02T01:36:12.512Z,22.05
2023-04-02T01:41:18.637Z,21.92
2023-04-02T01:46:32.965Z,21.90
2023-04-02T01:51:54.008Z,21.99
2023-04-02T01:56:48.502Z,21.81
2023-04-02T02:02:03.021Z,21.97
2023-04-02T02:07:00.876Z,21.94
2023-04-02T02:11:55.065Z,21.91
2023-04-02T02:16:49.371Z,21.81
2023-04-02T02:21:45.248Z,21.88
2023-04-02T02:26:39.944Z,21.94
2023-04-02T02:31:35.515Z,21.84
2023-04-02T02:36:38.632Z,21.95
2023-04-02T02:41:40.630Z,21.76
2023-04-02T02:46:36.024Z,21.92
2023-04-02T02:52:00.185Z,21.82
2023-04-02T02:57:09.385Z,21.79
2023-04-02T03:02:03.878Z,21.89
2023-04-02T03:06:59.344Z,21.95
2023-04-02T03:11:52.751Z,21.98
2023-04-02T03:16:55.122Z,21.98
2023-04-02T03:22:05.694Z,21.85
2023-04-02T03:27:19.476Z,21.99
2023-04-02T03:32:24.565Z,22.02
2023-04-02T03:37:23.958Z,21.97
2023-04-02T03:42:22.662Z,22.04
2023-04-02T03:47:25.090Z,22.07
2023-04-02T03:52:27.386Z,21.93
2023-04-02T03:57:25.543Z,22.07
2023-04-02T04:02:44.519Z,22.02
2023-04-02T04:07:41.919Z,21.93
2023-04-02T04:12:42.688Z,21.99
2023-04-02T04:18:20.043Z,22.09
2023-04-02T04:23:37.090Z,22.09
2023-04-02T04:28:56.795Z,22.10
2023-04-02T04:33:55.790Z,21.99
2023-04-02T04:38:55.768Z,22.09
2023-04-02T04:43:54.923Z,21.99
2023-04-02T04:48:53.939Z,22.11
2023-04-02T04:53:51.415Z,22.01
2023-04-02T04:58:53.066Z,21.98
2023-04-02T05:04:03.270Z,21.85
2023-04-02T05:09:04.126Z,22.10
2023-04-02T05:14:27.909Z,22.11
2023-04-02T05:19:49.494Z,22.10
2023-04-02T05:24:55.570Z,22.10
2023-04-02T05:30:01.091Z,22.10
2023-04-02T05:34:57.926Z,22.10
2023-04-02T05:39:58.093Z,22.02
2023-04-02T05:45:18.269Z,21.95
2023-04-02T05:50:33.811Z,21.90
2023-04-02T05:56:18.416Z,21.87
2023-04-02T06:01:42.519Z,21.70
2023-04-02T06:06:55.284Z,21.84
2023-04-02T06:11:54.521Z,21.70
2023-04-02T06:16:47.936Z,21.86
2023-04-02T06:21:50.044Z,21.80
2023-04-02T06:26:55.210Z,21.87
2023-04-02T06:31:52.313Z,21.65
2023-04-02T06:36:49.105Z,21.52
2023-04-02T06:41:43.012Z,21.68
2023-04-02T06:47:08.452Z,21.53
2023-04-02T06:52:04.095Z,21.47
2023-04-02T06:56:57.760Z,21.38
2023-04-02T07:02:32.417Z,21.62
2023-04-02T07:07:27.400Z,21.51
2023-04-02T07:12:25.048Z,21.59
2023-04-02T07:17:23.768Z,21.51
2023-04-02T07:22:19.970Z,21.51
2023-04-02T07:27:18.893Z,21.60
2023-04-02T07:32:14.201Z,21.41
2023-04-02T07:37:07.773Z,21.70
2023-04-02T07:42:02.607Z,21.75
2023-04-02T07:46:55.990Z,21.78
2023-04-02T07:51:54.118Z,21.71
2023-04-02T07:56:47.770Z,21.61
2023-04-02T08:01:40.665Z,21.55
2023-04-02T08:06:33.787Z,21.82
2023-04-02T08:11:29.663Z,21.80
2023-04-02T08:16:26.328Z,21.68
2023-04-02T08:21:19.921Z,21.72
2023-04-02T08:26:18.568Z,21.64
2023-04-02T08:31:11.785Z,21.82
2023-04-02T08:36:07.097Z,21.52
2023-04-02T08:41:03.385Z,21.82
2023-04-02T08:46:12.848Z,21.86
2023-04-02T08:51:07.595Z,21.78
2023-04-02T08:56:20.029Z,21.87
2023-04-02T09:01:28.164Z,21.91
2023-04-02T09:06:22.688Z,21.89
2023-04-02T09:11:44.949Z,21.90
2023-04-02T09:16:41.711Z,21.79
2023-04-02T09:21:39.183Z,21.81
2023-04-02T09:26:33.999Z,21.84
2023-04-02T09:31:56.774Z,21.82
2023-04-02T09:36:50.769Z,21.77
2023-04-02T09:41:48.211Z,21.82
2023-04-02T09:46:57.080Z,21.80
2023-04-02T09:52:21.082Z,21.78
2023-04-02T09:57:27.514Z,21.76
2023-04-02T10:02:30.927Z,21.62
2023-04-02T10:07:46.554Z,21.74
2023-04-02T10:12:43.659Z,21.68
2023-04-02T10:17:38.748Z,21.40
2023-04-02T10:22:33.176Z,21.07
2023-04-02T10:27:39.857Z,21.15
2023-04-02T10:32:43.345Z,21.13
2023-04-02T10:37:59.799Z,21.15
2023-04-02T10:42:59.061Z,21.22
2023-04-02T10:48:23.206Z,21.41
2023-04-02T10:53:19.767Z,21.36
2023-04-02T10:58:23.088Z,21.53
2023-04-02T11:03:40.121Z,21.50
2023-04-02T11:08:46.151Z,21.50
2023-04-02T11:14:02.968Z,21.42
2023-04-02T11:19:15.203Z,21.50
2023-04-02T11:24:23.683Z,21.50
2023-04-02T11:29:32.110Z,21.37
2023-04-02T11:35:07.227Z,21.40
2023-04-02T11:40:04.129Z,21.17
2023-04-02T11:45:01.087Z,21.26
2023-04-02T11:50:02.389Z,21.36
2023-04-02T11:55:17.549Z,21.22
2023-04-02T12:00:33.409Z,21.32
2023-04-02T12:05:55.257Z,21.31
2023-04-02T12:11:01.702Z,21.36
2023-04-02T12:15:59.332Z,21.23
2023-04-02T12:20:57.974Z,21.18
2023-04-02T12:26:00.752Z,21.16
2023-04-02T12:31:09.607Z,21.21
2023-04-02T12:36:03.166Z,21.10
2023-04-02T12:41:02.374Z,21.24
2023-04-02T12:45:58.521Z,21.21
2023-04-02T12:50:52.384Z,21.15
2023-04-02T12:55:49.662Z,20.94
2023-04-02T13:00:42.879Z,21.16
2023-04-02T13:05:46.692Z,20.99
2023-04-02T13:10:39.829Z,21.13
2023-04-02T13:15:35.446Z,21.09
2023-04-02T13:20:39.995Z,21.01
2023-04-02T13:25:37.410Z,21.15
2023-04-02T13:30:32.270Z,21.04
2023-04-02T13:35:27.540Z,21.14
2023-04-02T13:40:19.979Z,21.03
2023-04-02T13:45:19.203Z,21.25
2023-04-02T13:50:18.259Z,21.21
2023-04-02T13:55:11.784Z,21.25
2023-04-02T14:00:07.202Z,21.34
2023-04-02T14:05:12.366Z,21.45
2023-04-02T14:10:07.607Z,21.48
2023-04-02T14:15:25.307Z,21.50
2023-04-02T14:20:21.080Z,21.51
2023-04-02T14:25:58.511Z,21.46
2023-04-02T14:31:07.566Z,21.25
2023-04-02T14:36:28.189Z,21.54
2023-04-02T14:41:53.583Z,21.54
2023-04-02T14:46:48.060Z,21.33
2023-04-02T14:51:52.226Z,21.42
2023-04-02T14:57:16.998Z,21.63
2023-04-02T15:02:15.285Z,21.50
2023-04-02T15:07:18.451Z,21.63
2023-04-02T15:12:27.477Z,21.64
2023-04-02T15:17:22.217Z,21.52
2023-04-02T15:22:30.912Z,21.65
2023-04-02T15:27:27.882Z,21.64
2023-04-02T15:32:33.154Z,21.65
2023-04-02T15:37:33.083Z,21.65
2023-04-02T15:42:31.480Z,21.40
2023-04-02T15:47:56.635Z,21.63
2023-04-02T15:52:58.252Z,21.59
2023-04-02T15:58:14.008Z,21.65
2023-04-02T16:03:17.576Z,21.51
2023-04-02T16:08:22.841Z,21.65
2023-04-02T16:13:20.104Z,21.61
2023-04-02T16:18:30.755Z,21.61
2023-04-02T16:23:33.039Z,21.73
2023-04-02T16:28:33.973Z,21.72
2023-04-02T16:34:06.725Z,21.76
2023-04-02T16:39:09.176Z,21.61
2023-04-02T16:44:24.694Z,21.65
2023-04-02T16:49:26.147Z,21.75
2023-04-02T16:54:40.441Z,21.49
2023-04-02T16:59:39.854Z,21.80
2023-04-02T17:04:46.963Z,21.82
2023-04-02T17:09:47.235Z,21.59
2023-04-02T17:14:53.095Z,21.85
2023-04-02T17:19:49.143Z,21.72
2023-04-02T17:24:46.600Z,21.88
2023-04-02T17:29:42.656Z,21.78
2023-04-02T17:34:36.646Z,21.78
2023-04-02T17:39:43.154Z,21.85
2023-04-02T17:44:45.346Z,21.66
2023-04-02T17:49:46.686Z,21.23
2023-04-02T17:55:13.300Z,20.89
2023-04-02T18:00:06.366Z,20.74
2023-04-02T18:05:13.679Z,20.99
2023-04-02T18:10:25.014Z,21.36
2023-04-02T18:16:03.322Z,21.45
2023-04-02T18:21:21.132Z,21.47
2023-04-02T18:26:42.331Z,21.47
2023-04-02T18:31:50.226Z,21.44
2023-04-02T18:37:13.538Z,21.46
2023-04-02T18:42:19.437Z,21.37
2023-04-02T18:47:15.217Z,21.53
2023-04-02T18:52:15.423Z,21.45
2023-04-02T18:57:22.712Z,21.47
2023-04-02T19:02:37.608Z,21.34
2023-04-02T19:07:34.141Z,21.52
2023-04-02T19:12:28.235Z,21.54
2023-04-02T19:17:47.461Z,21.54
2023-04-02T19:22:50.388Z,21.53
2023-04-02T19:28:12.957Z,21.51
2023-04-02T19:33:35.798Z,21.49
2023-04-02T19:39:03.287Z,21.45
2023-04-02T19:43:57.693Z,21.27
2023-04-02T19:49:01.348Z,21.46
2023-04-02T19:53:54.001Z,21.38
2023-04-02T19:58:47.088Z,21.51
2023-04-02T20:03:42.123Z,21.42
2023-04-02T20:08:36.624Z,21.43
2023-04-02T20:13:30.107Z,21.47
2023-04-02T20:18:24.990Z,21.62
2023-04-02T20:23:18.149Z,21.65
2023-04-02T20:28:11.405Z,21.52
2023-04-02T20:33:06.190Z,21.56
2023-04-02T20:38:00.233Z,21.75
2023-04-02T20:42:54.081Z,21.76
2023-04-02T20:47:51.876Z,21.75
2023-04-02T20:52:45.402Z,21.82
2023-04-02T20:57:38.783Z,21.82
2023-04-02T21:02:32.696Z,21.76
2023-04-02T21:07:26.836Z,21.85
2023-04-02T21:12:20.866Z,21.87
2023-04-02T21:17:14.644Z,21.87
2023-04-02T21:22:09.637Z,21.90
2023-04-02T21:27:04.014Z,21.92
2023-04-02T21:31:59.864Z,21.89
2023-04-02T21:36:54.760Z,21.94
2023-04-02T21:41:53.168Z,21.82
2023-04-02T21:46:46.147Z,21.82
2023-04-02T21:51:41.024Z,21.99
2023-04-02T21:56:38.234Z,21.89
2023-04-02T22:01:34.729Z,22.02
2023-04-02T22:06:33.306Z,21.97
2023-04-02T22:11:48.538Z,21.88
2023-04-02T22:16:42.825Z,21.98
2023-04-02T22:21:37.045Z,21.99
2023-04-02T22:26:32.196Z,21.85
2023-04-02T22:31:26.992Z,21.85
2023-04-02T22:36:21.317Z,21.85
2023-04-02T22:41:23.672Z,21.88
2023-04-02T22:46:19.062Z,21.77
2023-04-02T22:51:14.897Z,21.99
2023-04-02T22:56:07.609Z,21.99
2023-04-02T23:01:09.345Z,21.74
2023-04-02T23:06:08.033Z,21.75
2023-04-02T23:11:06.801Z,21.85
2023-04-02T23:16:06.634Z,21.84
2023-04-02T23:20:59.575Z,21.92
2023-04-02T23:25:51.620Z,21.92
2023-04-02T23:30:44.855Z,21.89
2023-04-02T23:35:39.034Z,21.78
2023-04-02T23:40:32.949Z,21.76
2023-04-02T23:45:27.215Z,21.85
2023-04-02T23:50:19.989Z,21.85
2023-04-02T23:55:13.875Z,21.83
